Time;durP1;ratioP1;P1;durP2;ratioP2;P2;SDS_P1;SDS_P2;PMS_P1;PMS_P2;Temp;Humidity;BMP_temperature;BMP_pressure;BME280_temperature;BME280_humidity;BME280_pressure;Samples;Min_cycle;Max_cycle;Signal;HPM_P1;HPM_P2
2024/01/05 00:02:18;;;;;;;8.80;6.10;;;;;;;9.86;78.88;94246.63;5075118;28;20193;-71
2024/01/05 00:04:45;;;;;;;8.73;6.10;;;;;;;10.25;78.94;94311.06;5081135;28;20186;-72
2024/01/05 00:07:12;;;;;;;7.27;5.67;;;;;;;10.24;78.84;94304.34;5083202;28;20241;-71
2024/01/05 00:09:39;;;;;;;10.37;6.23;;;;;;;10.01;78.97;94280.91;5076373;28;20186;-70
2024/01/05 00:12:07;;;;;;;8.37;6.23;;;;;;;10.23;79.08;94317.22;5074915;28;20187;-71
2024/01/05 00:14:36;;;;;;;6.60;5.83;;;;;;;10.20;78.87;94315.78;5074097;28;20197;-72
2024/01/05 00:17:04;;;;;;;8.53;6.37;;;;;;;10.00;79.10;94284.44;5073462;28;20199;-71
2024/01/05 00:19:32;;;;;;;6.90;5.33;;;;;;;10.18;79.14;94317.66;5073385;28;20190;-67
2024/01/05 00:21:58;;;;;;;7.87;5.87;;;;;;;9.97;78.92;94282.19;5073259;28;20586;-68
2024/01/05 00:24:25;;;;;;;8.50;6.53;;;;;;;10.18;78.87;94321.97;5073596;28;20190;-69
2024/01/05 00:26:52;;;;;;;7.00;5.33;;;;;;;10.16;79.03;94324.69;5072753;28;20234;-69
2024/01/05 00:29:19;;;;;;;7.83;5.57;;;;;;;10.15;79.08;94314.63;5073120;28;20217;-70
2024/01/05 00:31:46;;;;;;;6.27;5.63;;;;;;;10.15;78.66;94310.31;5072371;28;20194;-74
2024/01/05 00:34:12;;;;;;;6.77;5.47;;;;;;;10.14;78.90;94318.09;5073090;28;20201;-71
2024/01/05 00:36:41;;;;;;;7.83;5.70;;;;;;;10.12;78.83;94318.25;5073965;28;20183;-70
2024/01/05 00:39:07;;;;;;;8.57;5.93;;;;;;;10.11;78.92;94316.66;5076156;28;20715;-68
2024/01/05 00:41:34;;;;;;;7.23;5.67;;;;;;;10.10;79.12;94322.69;5085738;28;20194;-75
2024/01/05 00:44:01;;;;;;;6.47;5.60;;;;;;;9.84;78.98;94273.25;5079877;28;20220;-69
2024/01/05 00:46:28;;;;;;;8.10;5.83;;;;;;;10.10;78.96;94324.44;5072688;28;20556;-75
2024/01/05 00:48:54;;;;;;;6.37;5.63;;;;;;;9.81;78.95;94287.13;5072994;28;20624;-71
2024/01/05 00:51:21;;;;;;;5.80;5.03;;;;;;;10.09;78.90;94333.84;5072661;28;20677;-72
2024/01/05 00:53:49;;;;;;;13.10;6.00;;;;;;;10.02;78.89;94330.28;5072432;28;20667;-73
2024/01/05 00:56:16;;;;;;;5.93;4.77;;;;;;;10.07;78.65;94315.31;5072803;28;20255;-72
2024/01/05 00:58:43;;;;;;;7.33;4.80;;;;;;;10.07;78.80;94327.31;5072084;28;20195;-71
2024/01/05 01:01:10;;;;;;;7.03;5.10;;;;;;;9.96;78.98;94313.75;5072254;28;20182;-72
2024/01/05 01:03:37;;;;;;;8.50;4.67;;;;;;;9.92;78.76;94312.44;5070973;28;20274;-69
2024/01/05 01:06:04;;;;;;;6.10;5.07;;;;;;;10.04;78.88;94328.38;5072306;28;20222;-71
2024/01/05 01:08:31;;;;;;;6.93;4.97;;;;;;;10.02;78.64;94325.19;5072707;28;20300;-71
2024/01/05 01:11:00;;;;;;;5.83;4.70;;;;;;;10.02;78.55;94325.19;5072456;28;20233;-75
2024/01/05 01:13:27;;;;;;;5.70;4.30;;;;;;;10.01;78.93;94328.66;5072082;28;20182;-75
2024/01/05 01:15:54;;;;;;;6.60;5.40;;;;;;;10.00;78.76;94329.63;5072928;28;20194;-71
2024/01/05 01:18:21;;;;;;;6.70;4.57;;;;;;;9.98;78.78;94331.53;5072420;28;20783;-71
2024/01/05 01:20:47;;;;;;;7.47;4.73;;;;;;;9.69;78.83;94283.16;5074174;28;20191;-73
2024/01/05 01:23:14;;;;;;;6.53;4.97;;;;;;;9.90;78.64;94332.22;5084321;28;20541;-72
2024/01/05 01:25:41;;;;;;;5.53;4.43;;;;;;;9.95;78.85;94339.47;5088572;28;20178;-69
2024/01/05 01:28:10;;;;;;;7.00;4.47;;;;;;;9.94;78.70;94345.53;5079879;28;20654;-73
2024/01/05 01:30:36;;;;;;;7.90;4.57;;;;;;;9.92;78.81;94340.53;5071834;28;20288;-74
2024/01/05 01:33:03;;;;;;;6.27;4.77;;;;;;;9.90;78.75;94342.44;5072094;28;20248;-75
2024/01/05 01:35:30;;;;;;;5.60;4.53;;;;;;;9.82;78.88;94321.91;5071803;28;20186;-74
2024/01/05 01:37:57;;;;;;;5.30;4.80;;;;;;;9.88;78.88;94344.31;5071777;28;20182;-70
2024/01/05 01:40:24;;;;;;;4.90;4.40;;;;;;;9.69;78.94;94308.69;5071120;28;20187;-70
2024/01/05 01:42:51;;;;;;;6.00;4.43;;;;;;;9.86;78.81;94345.41;5071584;28;20273;-72
2024/01/05 01:45:19;;;;;;;5.43;4.00;;;;;;;9.85;78.90;94349.72;5071052;28;20210;-74
2024/01/05 01:47:46;;;;;;;5.03;4.10;;;;;;;9.85;78.75;94351.47;5071383;28;20232;-68
2024/01/05 01:50:14;;;;;;;6.00;4.50;;;;;;;9.72;78.67;94333.94;5071105;28;20199;-69
2024/01/05 01:52:46;;;;;;;6.77;4.60;;;;;;;9.69;78.83;94344.41;5071219;28;20198;-73
2024/01/05 01:55:15;;;;;;;4.43;4.00;;;;;;;9.80;78.81;94359.53;5070741;28;20190;-73
2024/01/05 01:57:42;;;;;;;5.83;4.50;;;;;;;9.79;78.86;94360.50;5070998;28;20201;-75
2024/01/05 02:00:10;;;;;;;6.00;4.30;;;;;;;9.59;78.99;94341.91;5070676;28;20248;-72
2024/01/05 02:02:38;;;;;;;4.57;3.90;;;;;;;9.77;79.06;94373.41;5070745;28;20209;-69
2024/01/05 02:05:07;;;;;;;5.77;4.73;;;;;;;9.76;78.92;94366.69;5070535;28;20194;-73
2024/01/05 02:07:33;;;;;;;5.67;4.20;;;;;;;9.74;78.86;94378.00;5070923;28;20214;-72
2024/01/05 02:10:00;;;;;;;5.10;4.43;;;;;;;9.74;79.02;94368.56;5070489;28;20226;-74
2024/01/05 02:12:27;;;;;;;6.43;4.20;;;;;;;9.74;78.94;94378.00;5070770;28;20198;-72
2024/01/05 02:14:54;;;;;;;5.60;3.77;;;;;;;9.72;79.05;94385.81;5073206;28;20187;-73
2024/01/05 02:17:31;;;;;;;6.53;4.30;;;;;;;9.57;79.00;94359.09;5078716;28;20280;-71
2024/01/05 02:19:59;;;;;;;4.80;4.00;;;;;;;9.69;78.94;94370.75;5071848;28;20190;-74
2024/01/05 02:22:29;;;;;;;6.47;4.33;;;;;;;9.68;79.17;94371.69;5070491;28;20244;-75
2024/01/05 02:24:58;;;;;;;5.30;4.27;;;;;;;9.60;79.13;94358.03;5070906;28;20194;-76
2024/01/05 02:27:25;;;;;;;6.47;4.00;;;;;;;9.54;78.89;94349.16;5070788;28;20262;-76
2024/01/05 02:29:51;;;;;;;6.93;4.33;;;;;;;9.66;79.05;94375.31;5070220;28;20198;-74
2024/01/05 02:32:18;;;;;;;6.83;4.33;;;;;;;9.64;79.17;94367.81;5070762;28;20657;-74
2024/01/05 02:34:45;;;;;;;5.00;4.47;;;;;;;9.65;79.01;94373.72;5071117;28;20693;-73
2024/01/05 02:37:12;;;;;;;4.80;4.03;;;;;;;9.64;79.02;94374.69;5070463;28;20191;-75
2024/01/05 02:39:39;;;;;;;5.97;4.53;;;;;;;9.62;78.75;94371.44;5071166;28;20190;-73
2024/01/05 02:42:07;;;;;;;6.37;4.77;;;;;;;9.46;78.96;94362.66;5070597;28;20650;-70
2024/01/05 02:44:37;;;;;;;4.87;4.37;;;;;;;9.61;78.92;94380.06;5070593;28;20186;-73
2024/01/05 02:47:04;;;;;;;5.47;4.77;;;;;;;9.16;78.95;94312.63;5070417;28;20280;-73
2024/01/05 02:49:30;;;;;;;5.40;4.27;;;;;;;9.59;79.03;94377.66;5070284;28;20186;-75
2024/01/05 02:51:57;;;;;;;5.40;4.90;;;;;;;9.59;78.92;94387.84;5069323;28;20252;-75
2024/01/05 02:54:24;;;;;;;5.07;4.03;;;;;;;9.58;79.01;94387.97;5070417;28;20190;-69
2024/01/05 02:56:51;;;;;;;4.70;4.10;;;;;;;9.57;78.96;94388.94;5070089;28;20197;-72
2024/01/05 02:59:19;;;;;;;5.23;4.33;;;;;;;9.55;78.91;94394.97;5069992;28;20244;-70
2024/01/05 03:01:49;;;;;;;6.60;5.23;;;;;;;9.55;79.06;94400.09;5070226;28;20240;-72
2024/01/05 03:04:16;;;;;;;5.40;4.10;;;;;;;9.54;79.00;94401.03;5070465;28;20182;-69
2024/01/05 03:06:43;;;;;;;4.87;3.90;;;;;;;9.54;79.04;94395.09;5069798;28;20263;-68
2024/01/05 03:09:09;;;;;;;4.60;3.87;;;;;;;9.52;78.93;94391.91;5069887;28;20217;-68
2024/01/05 03:11:37;;;;;;;6.60;4.43;;;;;;;9.52;78.97;94404.66;5070060;28;20651;-71
2024/01/05 03:14:04;;;;;;;5.13;3.80;;;;;;;9.50;79.01;94404.81;5069835;28;20237;-70
2024/01/05 03:16:32;;;;;;;6.70;4.13;;;;;;;9.50;78.98;94401.47;5070742;28;20271;-67
2024/01/05 03:18:58;;;;;;;5.43;3.80;;;;;;;9.34;78.78;94388.47;5071302;28;20302;-69
2024/01/05 03:21:26;;;;;;;5.63;4.17;;;;;;;9.48;79.02;94418.66;5074653;28;20183;-73
2024/01/05 03:23:52;;;;;;;6.07;4.10;;;;;;;9.48;79.21;94413.53;5085202;28;20187;-71
2024/01/05 03:26:19;;;;;;;5.90;4.40;;;;;;;9.46;79.03;94423.91;5070361;28;20271;-69
2024/01/05 03:28:46;;;;;;;4.43;3.50;;;;;;;9.27;78.90;94403.50;5069761;28;20202;-73
2024/01/05 03:31:13;;;;;;;4.70;4.00;;;;;;;9.25;78.87;94411.31;5069977;28;20735;-74
2024/01/05 03:33:41;;;;;;;4.23;3.57;;;;;;;9.41;79.20;94438.00;5069709;28;20577;-70
2024/01/05 03:36:08;;;;;;;5.07;3.77;;;;;;;9.42;79.01;94439.63;5069312;28;20194;-73
2024/01/05 03:38:35;;;;;;;5.30;4.27;;;;;;;9.41;78.96;94450.75;5070318;28;20293;-69
2024/01/05 03:41:02;;;;;;;6.30;4.37;;;;;;;9.41;79.00;94449.03;5072461;28;20186;-75
2024/01/05 03:43:29;;;;;;;4.47;4.00;;;;;;;9.40;79.04;94459.34;5073597;28;20194;-72
2024/01/05 03:45:56;;;;;;;6.13;3.93;;;;;;;9.39;79.06;94450.09;5074489;28;20197;-72
2024/01/05 03:48:23;;;;;;;5.60;4.30;;;;;;;9.35;78.97;94457.22;5090399;28;20787;-73
2024/01/05 03:50:51;;;;;;;6.40;4.30;;;;;;;9.18;78.99;94428.09;5085647;28;20240;-69
2024/01/05 03:53:18;;;;;;;5.50;4.53;;;;;;;9.23;79.02;94441.22;5076074;28;20673;-70
2024/01/05 03:55:44;;;;;;;5.47;4.00;;;;;;;9.35;79.19;94459.75;5078524;28;20209;-71
2024/01/05 03:58:11;;;;;;;5.30;4.33;;;;;;;9.35;78.96;94466.63;5075086;28;20578;-70
2024/01/05 04:00:38;;;;;;;4.47;4.00;;;;;;;9.35;78.94;94469.16;5074728;28;20657;-73
2024/01/05 04:03:05;;;;;;;5.10;4.37;;;;;;;9.33;78.82;94463.41;5074404;28;20194;-70
2024/01/05 04:05:32;;;;;;;5.03;4.43;;;;;;;9.31;78.86;94463.53;5083047;28;20194;-73
2024/01/05 04:08:00;;;;;;;4.67;4.27;;;;;;;9.13;78.84;94434.53;5091283;28;20269;-71
2024/01/05 04:10:27;;;;;;;5.63;4.30;;;;;;;9.30;78.71;94469.56;5091611;28;20234;-70
2024/01/05 04:12:53;;;;;;;6.07;4.47;;;;;;;9.28;78.94;94477.38;5076225;28;20191;-69
2024/01/05 04:15:21;;;;;;;6.27;4.07;;;;;;;9.29;78.75;94476.44;5074409;28;20195;-72
2024/01/05 04:17:47;;;;;;;6.93;4.17;;;;;;;9.28;78.79;94476.53;5073497;28;20236;-70
2024/01/05 04:20:14;;;;;;;4.80;3.90;;;;;;;8.72;78.84;94380.31;5073298;28;20190;-70
2024/01/05 04:22:41;;;;;;;5.47;4.40;;;;;;;9.26;78.92;94474.13;5071583;28;20179;-70
2024/01/05 04:25:09;;;;;;;6.83;4.63;;;;;;;9.17;78.73;94462.19;5072945;28;20274;-72
2024/01/05 04:27:35;;;;;;;4.83;4.17;;;;;;;9.24;78.93;94473.47;5072490;28;20221;-69
2024/01/05 04:30:04;;;;;;;5.63;3.80;;;;;;;9.23;78.92;94479.50;5072611;28;20190;-66
2024/01/05 04:32:31;;;;;;;4.37;3.80;;;;;;;9.22;78.76;94483.00;5072697;28;20183;-71
2024/01/05 04:34:58;;;;;;;5.87;4.17;;;;;;;9.22;78.82;94483.00;5072804;28;20646;-70
2024/01/05 04:37:25;;;;;;;5.97;4.33;;;;;;;9.21;78.84;94486.50;5072981;28;20193;-73
2024/01/05 04:39:52;;;;;;;5.43;4.20;;;;;;;9.04;78.70;94475.22;5073496;28;20186;-72
2024/01/05 04:42:20;;;;;;;6.30;4.33;;;;;;;9.21;78.96;94506.09;5072751;28;20195;-70
2024/01/05 04:44:47;;;;;;;4.80;3.87;;;;;;;9.19;78.85;94500.31;5072284;28;20198;-68
2024/01/05 04:47:13;;;;;;;6.43;3.80;;;;;;;9.19;78.84;94502.88;5072725;28;20222;-75
2024/01/05 04:49:40;;;;;;;6.20;3.83;;;;;;;9.18;78.72;94506.38;5072550;28;20194;-68
2024/01/05 04:52:07;;;;;;;5.90;4.17;;;;;;;9.16;78.87;94508.25;5071657;28;20561;-75
2024/01/05 04:54:34;;;;;;;4.33;3.87;;;;;;;9.08;78.82;94492.81;5072768;28;20194;-74
2024/01/05 04:57:01;;;;;;;8.77;4.57;;;;;;;9.00;78.85;94483.28;5072433;28;20182;-71
2024/01/05 04:59:29;;;;;;;6.20;3.97;;;;;;;9.14;78.85;94505.03;5072526;28;20214;-72
2024/01/05 05:01:57;;;;;;;5.23;4.27;;;;;;;9.14;78.88;94521.13;5072205;28;20190;-74
2024/01/05 05:04:26;;;;;;;5.40;4.00;;;;;;;9.12;78.79;94517.91;5072647;28;20209;-76
2024/01/05 05:06:53;;;;;;;6.00;4.20;;;;;;;9.12;78.62;94528.13;5072547;28;20573;-73
2024/01/05 05:09:19;;;;;;;4.83;3.57;;;;;;;9.12;78.75;94522.22;5071983;28;20285;-73
2024/01/05 05:11:46;;;;;;;6.57;4.53;;;;;;;9.10;78.83;94529.97;5072218;28;20226;-73
2024/01/05 05:14:13;;;;;;;4.23;3.60;;;;;;;9.10;78.81;94539.38;5071577;28;20213;-74
2024/01/05 05:16:41;;;;;;;4.90;4.10;;;;;;;9.09;78.64;94540.34;5072207;28;20522;-70
2024/01/05 05:19:08;;;;;;;4.77;4.00;;;;;;;8.98;78.62;94525.94;5071660;28;20197;-73
2024/01/05 05:21:35;;;;;;;4.00;3.60;;;;;;;9.05;78.73;94544.88;5071668;28;20205;-74
2024/01/05 05:24:02;;;;;;;6.40;4.40;;;;;;;9.04;78.71;94549.19;5072235;28;20203;-73
2024/01/05 05:26:28;;;;;;;6.07;4.10;;;;;;;8.87;78.77;94534.53;5071937;28;20664;-72
2024/01/05 05:28:55;;;;;;;5.77;4.20;;;;;;;9.03;78.56;94549.31;5071880;28;20582;-71
2024/01/05 05:31:22;;;;;;;5.23;4.10;;;;;;;9.01;78.67;94557.09;5071417;28;20186;-70
2024/01/05 05:33:50;;;;;;;4.77;3.93;;;;;;;8.94;78.74;94545.03;5071738;28;20605;-73
2024/01/05 05:36:17;;;;;;;6.73;4.50;;;;;;;8.80;78.77;94520.66;5071486;28;20201;-71
2024/01/05 05:38:44;;;;;;;4.67;4.20;;;;;;;8.99;78.66;94546.22;5071966;28;20190;-75
2024/01/05 05:41:11;;;;;;;6.20;4.17;;;;;;;8.97;78.65;94545.53;5071273;28;20220;-70
2024/01/05 05:43:37;;;;;;;9.37;3.80;;;;;;;8.97;78.74;94552.38;5071691;28;20190;-72
2024/01/05 05:46:04;;;;;;;5.17;4.00;;;;;;;8.91;78.86;94543.53;5071508;28;20195;-70
2024/01/05 05:48:31;;;;;;;7.30;5.50;;;;;;;8.91;78.73;94551.19;5071868;28;20230;-71
2024/01/05 05:50:59;;;;;;;6.27;4.43;;;;;;;8.96;78.75;94560.97;5071838;28;20190;-70
2024/01/05 05:53:26;;;;;;;5.60;4.47;;;;;;;8.92;78.86;94565.53;5073873;28;20218;-71
2024/01/05 05:55:53;;;;;;;6.00;4.20;;;;;;;8.96;78.86;94573.72;5084908;28;20178;-72
2024/01/05 05:58:21;;;;;;;5.27;4.50;;;;;;;8.81;78.82;94545.25;5082930;28;20194;-70
2024/01/05 06:00:48;;;;;;;8.03;4.93;;;;;;;8.93;78.54;94572.25;5073505;28;20213;-72
2024/01/05 06:03:15;;;;;;;9.30;4.40;;;;;;;8.96;78.65;94576.28;5080539;28;20197;-74
2024/01/05 06:05:42;;;;;;;5.80;4.93;;;;;;;8.99;78.63;94588.78;5083048;28;20236;-76
2024/01/05 06:08:12;;;;;;;8.37;4.17;;;;;;;9.54;100.00;94573.78;5071071;28;20677;-70
2024/01/05 06:10:39;;;;;;;4.57;3.50;;;;;;;10.58;100.00;94587.53;5071501;28;20249;-71
2024/01/05 06:13:06;;;;;;;4.40;3.77;;;;;;;11.49;100.00;94572.22;5071221;28;20189;-73
2024/01/05 06:15:33;;;;;;;6.13;3.83;;;;;;;12.14;100.00;94564.25;5071433;28;20191;-74
2024/01/05 06:17:59;;;;;;;9.17;3.40;;;;;;;13.04;100.00;94575.78;5068840;28;20193;-73
2024/01/05 06:20:26;;;;;;;4.47;3.13;;;;;;;13.68;100.00;94569.16;5066805;28;20206;-69
2024/01/05 06:22:53;;;;;;;3.50;3.03;;;;;;;14.24;100.00;94577.84;5069905;28;20186;-69
2024/01/05 06:25:21;;;;;;;4.30;3.90;;;;;;;14.49;100.00;94562.41;5069761;28;20209;-74
2024/01/05 06:27:48;;;;;;;4.03;3.60;;;;;;;14.75;100.00;94585.31;5070488;28;20222;-67
2024/01/05 06:30:16;;;;;;;4.47;3.50;;;;;;;14.73;97.56;94595.78;5069609;28;20694;-66
2024/01/05 06:32:42;;;;;;;6.33;3.73;;;;;;;14.72;94.94;94583.91;5069649;28;20217;-67
2024/01/05 06:35:11;;;;;;;12.77;3.97;;;;;;;14.69;91.89;94580.84;5069933;28;20190;-70
2024/01/05 06:37:37;;;;;;;4.47;4.03;;;;;;;14.85;88.90;94601.38;5069064;28;20619;-69
2024/01/05 06:40:05;;;;;;;5.27;3.80;;;;;;;14.93;86.60;94601.34;5069315;28;20602;-73
2024/01/05 06:42:33;;;;;;;6.00;3.77;;;;;;;15.15;85.42;94611.88;5069528;28;20198;-68
2024/01/05 06:45:00;;;;;;;4.63;3.80;;;;;;;15.37;84.36;94600.88;5068496;28;20198;-66
2024/01/05 06:47:27;;;;;;;5.57;4.20;;;;;;;15.47;83.65;94585.97;5068516;28;20199;-68
2024/01/05 06:49:54;;;;;;;5.57;4.00;;;;;;;15.90;83.58;94601.84;5068961;28;20194;-68
2024/01/05 06:52:24;;;;;;;6.50;4.33;;;;;;;16.22;83.46;94602.56;5069273;28;20190;-66
2024/01/05 06:54:50;;;;;;;5.67;3.80;;;;;;;16.55;83.15;94598.69;5069347;28;20263;-75
2024/01/05 06:57:18;;;;;;;4.00;3.60;;;;;;;16.70;82.83;94566.91;5070510;28;20446;-70
2024/01/05 06:59:46;;;;;;;4.27;3.63;;;;;;;17.29;82.60;94600.50;5068737;28;20205;-74
2024/01/05 07:02:15;;;;;;;6.67;4.20;;;;;;;17.65;82.05;94600.47;5069262;28;20565;-66
2024/01/05 07:04:41;;;;;;;4.30;3.90;;;;;;;17.85;81.05;94574.84;5070100;28;20185;-71
2024/01/05 07:07:08;;;;;;;5.67;3.90;;;;;;;18.34;80.05;94599.94;5069598;28;20218;-70
2024/01/05 07:09:35;;;;;;;5.37;4.20;;;;;;;18.75;79.00;94599.25;5068495;28;20268;-71
2024/01/05 07:12:02;;;;;;;4.27;3.53;;;;;;;19.13;77.92;94601.44;5068482;28;20225;-73
2024/01/05 07:14:29;;;;;;;5.97;3.97;;;;;;;19.31;76.79;94583.59;5068165;28;20248;-69
2024/01/05 07:16:58;;;;;;;4.30;3.80;;;;;;;19.83;75.43;94600.31;5068529;28;20199;-73
2024/01/05 07:19:25;;;;;;;7.53;4.05;;;;;;;20.19;73.85;94599.97;5068643;28;20198;-76
2024/01/05 07:21:52;;;;;;;7.18;4.70;;;;;;;20.46;72.79;94587.75;5068317;28;20201;-75
2024/01/05 07:24:20;;;;;;;4.72;4.25;;;;;;;20.88;71.67;94598.72;5069020;28;20194;-72
2024/01/05 07:26:47;;;;;;;6.47;4.22;;;;;;;20.95;69.97;94565.72;5068919;28;20609;-74
2024/01/05 07:29:14;;;;;;;9.05;4.13;;;;;;;21.38;69.14;94588.63;5068678;28;20733;-73
2024/01/05 07:31:41;;;;;;;6.53;3.90;;;;;;;21.63;67.94;94603.50;5068252;28;20189;-72
2024/01/05 07:34:09;;;;;;;4.80;4.18;;;;;;;21.58;67.20;94579.91;5068477;28;20568;-76
2024/01/05 07:36:36;;;;;;;6.82;3.83;;;;;;;21.67;67.15;94583.84;5069112;28;20195;-72
2024/01/05 07:39:03;;;;;;;6.38;4.00;;;;;;;21.83;66.75;94606.78;5069034;28;20210;-75
2024/01/05 07:41:29;;;;;;;5.22;4.28;;;;;;;21.83;66.37;94606.78;5068767;28;20263;-74
2024/01/05 07:43:56;;;;;;;4.32;3.78;;;;;;;21.83;65.40;94606.78;5068477;28;20195;-72
2024/01/05 07:46:26;;;;;;;6.03;4.53;;;;;;;21.86;64.71;94613.41;5068249;28;20259;-67
2024/01/05 07:48:54;;;;;;;6.93;4.95;;;;;;;21.90;64.15;94609.38;5070074;28;20245;-69
2024/01/05 07:51:22;;;;;;;4.80;3.92;;;;;;;21.86;63.48;94603.78;5075429;28;20269;-70
2024/01/05 07:53:49;;;;;;;10.55;4.60;;;;;;;21.67;62.43;94597.66;5079650;28;20193;-72
2024/01/05 07:56:18;;;;;;;7.85;4.40;;;;;;;21.50;62.07;94592.16;5076429;28;20193;-74
2024/01/05 07:58:45;;;;;;;6.05;4.60;;;;;;;21.40;61.96;94610.00;5070517;28;20646;-73
2024/01/05 08:01:15;;;;;;;6.07;4.20;;;;;;;21.32;61.03;94607.63;5069494;28;20187;-72
2024/01/05 08:03:42;;;;;;;6.72;4.15;;;;;;;21.21;60.58;94618.66;5068958;28;20703;-70
2024/01/05 08:06:14;;;;;;;6.00;3.97;;;;;;;21.00;60.30;94615.31;5069360;28;20252;-75
2024/01/05 08:08:43;;;;;;;5.40;4.30;;;;;;;20.65;59.91;94559.41;5071657;28;20211;-72
2024/01/05 08:11:10;;;;;;;6.43;4.20;;;;;;;21.02;59.65;94631.50;5079534;28;20225;-67
2024/01/05 08:13:36;;;;;;;8.30;4.53;;;;;;;20.91;59.08;94608.72;5079941;28;20187;-75
2024/01/05 08:16:04;;;;;;;5.00;3.38;;;;;;;20.71;58.93;94624.34;5072919;28;20198;-77
2024/01/05 08:18:30;;;;;;;6.70;3.70;;;;;;;19.42;59.36;94468.91;5069279;28;20190;-73
2024/01/05 08:20:58;;;;;;;7.47;3.95;;;;;;;20.14;59.54;94612.75;5069527;28;20243;-76
2024/01/05 08:23:24;;;;;;;10.23;3.80;;;;;;;19.90;59.55;94626.28;5068285;28;20190;-77
2024/01/05 08:25:53;;;;;;;5.75;4.00;;;;;;;19.62;59.94;94622.03;5069278;28;20641;-72
2024/01/05 08:28:20;;;;;;;6.45;4.15;;;;;;;19.61;59.56;94632.59;5072155;28;20209;-72
2024/01/05 08:30:47;;;;;;;8.75;4.00;;;;;;;19.87;58.54;94605.94;5072049;28;20206;-76
2024/01/05 08:33:15;;;;;;;4.65;4.07;;;;;;;20.23;57.55;94631.53;5072576;28;20195;-75
2024/01/05 08:35:42;;;;;;;6.85;3.88;;;;;;;20.10;57.27;94628.91;5072310;28;20215;-75
2024/01/05 08:38:09;;;;;;;3.58;3.28;;;;;;;19.96;57.54;94636.69;5072947;28;20639;-77
2024/01/05 08:40:35;;;;;;;5.63;3.63;;;;;;;19.75;57.65;94639.44;5075257;28;20193;-74
2024/01/05 08:43:04;;;;;;;6.82;3.80;;;;;;;19.55;57.69;94642.72;5080449;28;20187;-74
2024/01/05 08:45:32;;;;;;;5.37;3.90;;;;;;;19.36;58.04;94635.66;5085716;28;20193;-74
2024/01/05 08:47:59;;;;;;;4.35;3.63;;;;;;;19.20;58.38;94634.19;5081080;28;20202;-72
2024/01/05 08:50:26;;;;;;;7.43;4.03;;;;;;;18.98;58.65;94633.47;5072780;28;20201;-69
2024/01/05 08:52:53;;;;;;;6.37;3.77;;;;;;;18.75;58.94;94627.75;5072219;28;20198;-71
2024/01/05 08:55:19;;;;;;;5.80;4.03;;;;;;;18.35;59.33;94609.31;5071503;28;20190;-75
2024/01/05 08:57:47;;;;;;;5.27;3.60;;;;;;;18.30;59.47;94619.41;5071513;28;20199;-75
2024/01/05 09:00:16;;;;;;;7.13;4.17;;;;;;;18.12;59.67;94617.28;5070883;28;20296;-75
2024/01/05 09:02:43;;;;;;;4.67;3.50;;;;;;;17.97;59.94;94614.78;5071911;28;20187;-76
2024/01/05 09:05:10;;;;;;;4.57;3.60;;;;;;;17.83;60.02;94618.19;5070908;28;20297;-74
2024/01/05 09:07:37;;;;;;;6.60;4.00;;;;;;;17.73;60.11;94617.66;5070912;28;20699;-74
2024/01/05 09:10:04;;;;;;;5.40;3.17;;;;;;;17.64;60.26;94611.00;5071278;28;20232;-75
2024/01/05 09:12:31;;;;;;;5.20;3.50;;;;;;;17.55;60.31;94607.75;5071227;28;20191;-75
2024/01/05 09:14:59;;;;;;;7.17;3.87;;;;;;;17.42;60.20;94602.44;5071260;28;20205;-73
2024/01/05 09:17:27;;;;;;;5.53;3.67;;;;;;;17.32;60.42;94594.16;5070903;28;20653;-76
2024/01/05 09:19:54;;;;;;;6.57;3.70;;;;;;;17.36;60.33;94610.88;5070597;28;20231;-74
2024/01/05 09:22:21;;;;;;;4.67;3.43;;;;;;;17.30;60.39;94609.84;5070505;28;20190;-76
2024/01/05 09:24:48;;;;;;;6.50;3.87;;;;;;;17.21;60.31;94598.00;5071422;28;20270;-74
2024/01/05 09:27:15;;;;;;;4.23;3.03;;;;;;;17.15;60.49;94596.94;5070855;28;20190;-72
2024/01/05 09:29:42;;;;;;;4.63;3.63;;;;;;;17.16;60.67;94601.13;5070485;28;20222;-72
2024/01/05 09:32:08;;;;;;;4.40;3.23;;;;;;;17.04;60.61;94593.03;5071131;28;20186;-73
2024/01/05 09:34:37;;;;;;;5.10;3.20;;;;;;;17.05;60.56;94609.31;5071068;28;20681;-76
2024/01/05 09:37:04;;;;;;;4.17;3.47;;;;;;;16.92;60.64;94604.78;5070912;28;20183;-75
2024/01/05 09:39:31;;;;;;;7.57;4.10;;;;;;;16.94;60.52;94612.38;5069969;28;20205;-68
2024/01/05 09:41:58;;;;;;;5.47;3.33;;;;;;;16.85;60.74;94609.09;5070508;28;20187;-75
2024/01/05 09:44:26;;;;;;;9.97;4.03;;;;;;;16.65;60.64;94579.56;5070532;28;20201;-75
2024/01/05 09:46:54;;;;;;;5.07;3.20;;;;;;;16.79;60.74;94613.16;5070365;28;20202;-70
2024/01/05 09:49:23;;;;;;;5.27;4.17;;;;;;;16.77;60.75;94616.91;5070288;28;20206;-75
2024/01/05 09:51:53;;;;;;;8.77;3.70;;;;;;;16.59;60.72;94599.16;5070914;28;20198;-72
2024/01/05 09:54:19;;;;;;;4.97;3.23;;;;;;;16.67;60.76;94619.72;5067112;28;20186;-72
2024/01/05 09:56:47;;;;;;;5.93;3.43;;;;;;;16.63;60.97;94613.31;5071611;28;20201;-72
2024/01/05 09:59:17;;;;;;;6.40;3.10;;;;;;;16.59;60.93;94611.25;5070550;28;20202;-76
2024/01/05 10:01:47;;;;;;;6.33;3.73;;;;;;;16.66;63.02;94601.81;5071140;28;20186;-65
2024/01/05 10:04:15;;;;;;;4.17;3.20;;;;;;;16.68;62.84;94592.91;5071130;28;20197;-69
2024/01/05 10:06:41;;;;;;;5.73;3.50;;;;;;;16.80;63.24;94598.50;5069876;28;20532;-71
2024/01/05 10:09:10;;;;;;;4.20;3.47;;;;;;;16.66;63.32;94568.25;5070441;28;20225;-70
2024/01/05 10:11:41;;;;;;;5.00;3.73;;;;;;;16.79;63.55;94592.50;5071342;28;20261;-69
2024/01/05 10:14:12;;;;;;;4.23;3.80;;;;;;;16.78;63.57;94590.91;5071734;28;20190;-69
2024/01/05 10:16:39;;;;;;;4.83;3.67;;;;;;;16.74;63.53;94588.84;5075585;28;20221;-70
2024/01/05 10:19:13;;;;;;;5.73;4.20;;;;;;;16.76;63.46;94587.72;5075827;28;20197;-71
2024/01/05 10:21:40;;;;;;;5.03;3.70;;;;;;;16.66;63.45;94571.63;5073169;28;20193;-66
2024/01/05 10:24:16;;;;;;;5.40;3.70;;;;;;;16.75;63.17;94573.19;5073942;28;20195;-74
2024/01/05 10:26:43;;;;;;;5.17;4.20;;;;;;;16.70;63.23;94566.91;5075258;28;20213;-69
2024/01/05 10:29:18;;;;;;;4.20;3.70;;;;;;;16.75;62.98;94578.38;5083729;28;20359;-73
2024/01/05 10:31:45;;;;;;;4.47;3.70;;;;;;;16.73;62.95;94564.81;5075891;28;20659;-74
2024/01/05 10:34:12;;;;;;;5.00;3.90;;;;;;;16.66;62.89;94545.81;5072325;28;20198;-74
2024/01/05 10:36:38;;;;;;;11.37;4.80;;;;;;;16.77;62.66;94560.91;5070789;28;20185;-74
2024/01/05 10:39:08;;;;;;;5.47;4.17;;;;;;;16.75;62.41;94551.72;5072138;28;20186;-67
2024/01/05 10:41:37;;;;;;;5.30;4.37;;;;;;;16.80;62.42;94559.75;5070672;28;20658;-72
2024/01/05 10:44:04;;;;;;;9.37;5.27;;;;;;;16.82;62.18;94554.41;5070222;28;20207;-71
2024/01/05 10:46:33;;;;;;;7.50;5.03;;;;;;;16.85;62.02;94548.88;5069591;28;20222;-75
2024/01/05 10:49:01;;;;;;;6.83;4.83;;;;;;;16.80;61.80;94546.84;5067558;28;20217;-71
2024/01/05 10:51:29;;;;;;;8.57;5.03;;;;;;;16.90;61.76;94547.34;5066628;28;20662;-72
2024/01/05 10:53:58;;;;;;;13.23;6.37;;;;;;;16.96;61.55;94549.19;5069043;28;20209;-75
2024/01/05 10:56:28;;;;;;;10.70;6.27;;;;;;;16.93;61.60;94531.50;5067360;28;20547;-72
2024/01/05 10:58:57;;;;;;;8.27;5.60;;;;;;;16.93;61.26;94523.75;5068424;28;20182;-73
2024/01/05 11:01:27;;;;;;;8.30;5.77;;;;;;;17.06;61.26;94536.03;5069142;28;20640;-72
2024/01/05 11:03:55;;;;;;;10.43;5.57;;;;;;;17.09;61.19;94542.59;5069167;28;20565;-74
2024/01/05 11:06:25;;;;;;;8.50;6.00;;;;;;;17.12;61.13;94537.06;5069452;28;20193;-73
2024/01/05 11:09:07;;;;;;;9.87;6.37;;;;;;;17.05;60.89;94513.72;5069504;28;20194;-76
2024/01/05 11:11:45;;;;;;;13.33;6.90;;;;;;;17.16;60.99;94530.56;5068695;28;20226;-76
2024/01/05 11:14:40;;;;;;;15.23;7.10;;;;;;;17.13;61.10;94523.16;5069032;28;20190;-72
2024/01/05 11:17:35;;;;;;;9.77;7.13;;;;;;;17.12;60.90;94519.78;5068880;28;20577;-72
2024/01/05 11:20:16;;;;;;;11.37;6.43;;;;;;;16.59;60.96;94428.75;5067000;28;20186;-73
2024/01/05 11:22:47;;;;;;;9.33;6.10;;;;;;;17.20;60.69;94513.72;5067292;28;20221;-75
2024/01/05 11:25:15;;;;;;;11.30;6.73;;;;;;;16.98;60.40;94462.00;5079974;28;20198;-70
2024/01/05 11:27:47;;;;;;;12.77;7.07;;;;;;;17.37;60.12;94499.56;5091311;28;20201;-76
2024/01/05 11:30:15;;;;;;;11.33;7.00;;;;;;;17.43;60.15;94493.66;5081053;28;20226;-71
2024/01/05 11:32:44;;;;;;;12.23;7.07;;;;;;;17.58;59.91;94516.06;5073357;28;20602;-75
2024/01/05 11:35:50;;;;;;;8.93;6.63;;;;;;;17.68;59.87;94516.56;5071819;28;20666;-70
2024/01/05 11:38:28;;;;;;;9.67;6.40;;;;;;;17.78;59.65;94514.47;5079056;28;20214;-68
2024/01/05 11:40:54;;;;;;;11.13;7.20;;;;;;;17.84;59.60;94503.41;5069976;28;20194;-73